Time;durP1;ratioP1;P1;durP2;ratioP2;P2;SDS_P1;SDS_P2;PMS_P1;PMS_P2;Temp;Humidity;BMP_temperature;BMP_pressure;BME280_temperature;BME280_humidity;BME280_pressure;Samples;Min_cycle;Max_cycle;Signal;HPM_P1;HPM_P2
2023/02/19 00:01:44;;;;;;;16.88;12.25;;;11.90;1.00;;;;;;5100642;27;20035;-54
2023/02/19 00:04:16;;;;;;;17.20;12.63;;;11.90;1.00;;;;;;5106681;28;20016;-55
2023/02/19 00:06:42;;;;;;;20.05;13.25;;;11.90;1.00;;;;;;5114615;28;20020;-54
2023/02/19 00:09:10;;;;;;;16.35;12.13;;;11.80;1.00;;;;;;5113317;28;20496;-53
2023/02/19 00:11:37;;;;;;;16.13;13.02;;;11.90;1.00;;;;;;5114534;28;20016;-56
2023/02/19 00:14:03;;;;;;;13.35;11.75;;;11.90;1.00;;;;;;5112804;28;20484;-55
2023/02/19 00:16:37;;;;;;;15.43;12.38;;;11.70;1.00;;;;;;5112809;28;20434;-54
2023/02/19 00:19:06;;;;;;;16.05;13.48;;;11.90;1.00;;;;;;5114463;28;20034;-55
2023/02/19 00:21:33;;;;;;;15.93;12.52;;;11.80;1.00;;;;;;5114340;27;20023;-55
2023/02/19 00:24:02;;;;;;;16.92;12.57;;;11.90;1.00;;;;;;5113983;28;20518;-54
2023/02/19 00:26:28;;;;;;;14.93;12.68;;;12.00;1.00;;;;;;5114068;28;20031;-56
2023/02/19 00:28:55;;;;;;;16.35;12.43;;;11.90;1.00;;;;;;5113861;28;20051;-56
2023/02/19 00:31:25;;;;;;;15.65;11.77;;;11.90;1.00;;;;;;5114000;28;20055;-56
2023/02/19 00:33:54;;;;;;;18.48;12.07;;;11.90;1.00;;;;;;5113638;28;20061;-55
2023/02/19 00:36:20;;;;;;;14.82;11.90;;;11.90;1.00;;;;;;5111483;28;20489;-55
2023/02/19 00:38:46;;;;;;;16.65;12.50;;;11.80;1.00;;;;;;5113843;28;20046;-55
2023/02/19 00:41:19;;;;;;;16.70;12.38;;;11.90;1.00;;;;;;5114247;28;20020;-56
2023/02/19 00:43:49;;;;;;;14.73;12.45;;;12.00;1.00;;;;;;5114287;28;20080;-56
2023/02/19 00:46:17;;;;;;;17.08;12.02;;;11.70;1.00;;;;;;5113947;28;20024;-57
2023/02/19 00:48:42;;;;;;;17.00;12.48;;;11.90;1.00;;;;;;5113582;28;20036;-57
2023/02/19 00:51:08;;;;;;;15.30;12.38;;;11.90;1.00;;;;;;5113968;28;20119;-56
2023/02/19 00:53:34;;;;;;;14.35;12.35;;;11.90;1.00;;;;;;5112299;28;20028;-57
2023/02/19 00:55:59;;;;;;;16.60;13.38;;;11.90;1.00;;;;;;5113508;28;20457;-57
2023/02/19 00:58:25;;;;;;;17.73;12.43;;;11.80;1.00;;;;;;5112233;28;20031;-56
2023/02/19 01:00:50;;;;;;;18.48;12.85;;;11.80;1.00;;;;;;5112114;28;20030;-57
2023/02/19 01:03:16;;;;;;;16.27;13.10;;;11.80;1.00;;;;;;5107102;28;20077;-56
2023/02/19 01:05:42;;;;;;;15.23;12.60;;;11.70;1.00;;;;;;5112014;28;20107;-54
2023/02/19 01:08:30;;;;;;;17.48;13.10;;;11.70;1.00;;;;;;5113486;28;20075;-55
2023/02/19 01:10:56;;;;;;;14.48;12.10;;;11.80;1.00;;;;;;5102136;28;20028;-54
2023/02/19 01:13:22;;;;;;;16.83;13.18;;;11.80;1.00;;;;;;5113071;28;20126;-55
2023/02/19 01:15:48;;;;;;;18.65;13.85;;;11.70;1.00;;;;;;5113427;28;20028;-56
2023/02/19 01:18:14;;;;;;;17.13;12.55;;;11.70;1.00;;;;;;5113105;28;20062;-56
2023/02/19 01:20:42;;;;;;;18.05;12.85;;;11.50;1.00;;;;;;5112924;28;20027;-55
2023/02/19 01:23:10;;;;;;;17.10;12.25;;;11.70;1.00;;;;;;5113070;28;20028;-56
2023/02/19 01:25:38;;;;;;;15.02;11.68;;;11.70;1.00;;;;;;5113030;28;20411;-57
2023/02/19 01:28:04;;;;;;;14.02;11.85;;;11.60;1.00;;;;;;5112881;28;20020;-55
2023/02/19 01:30:29;;;;;;;15.23;12.15;;;11.50;1.00;;;;;;5112664;28;20030;-55
2023/02/19 01:32:55;;;;;;;17.90;12.48;;;11.50;1.00;;;;;;5113144;28;20081;-56
2023/02/19 01:35:21;;;;;;;16.75;12.65;;;11.40;1.00;;;;;;5112574;28;20031;-56
2023/02/19 01:37:47;;;;;;;16.55;12.02;;;11.50;1.00;;;;;;5111544;28;20023;-52
2023/02/19 01:40:13;;;;;;;19.08;13.00;;;11.60;1.00;;;;;;5112455;28;20375;-57
2023/02/19 01:42:42;;;;;;;15.75;12.10;;;11.60;1.00;;;;;;5092676;28;20023;-57
2023/02/19 01:45:30;;;;;;;16.63;12.45;;;11.50;1.00;;;;;;5103623;28;20054;-52
2023/02/19 01:48:05;;;;;;;15.00;12.57;;;11.60;1.00;;;;;;5112737;28;20027;-55
2023/02/19 01:50:37;;;;;;;13.73;12.23;;;11.60;1.00;;;;;;5112459;28;20052;-54
2023/02/19 01:53:07;;;;;;;16.92;11.70;;;11.60;1.00;;;;;;5112771;28;20032;-57
2023/02/19 01:55:34;;;;;;;17.83;12.32;;;11.60;1.00;;;;;;5112638;28;20038;-55
2023/02/19 01:58:02;;;;;;;14.98;12.70;;;11.50;1.00;;;;;;5112636;28;20015;-57
2023/02/19 02:00:28;;;;;;;14.13;12.18;;;11.60;1.00;;;;;;5112543;28;20362;-57
2023/02/19 02:02:56;;;;;;;17.45;12.63;;;11.60;1.00;;;;;;5112003;28;20024;-53
2023/02/19 02:05:46;;;;;;;16.60;13.23;;;11.40;1.00;;;;;;5092614;28;20073;-57
2023/02/19 02:11:00;;;;;;;18.08;12.30;;;11.50;1.00;;;;;;5112289;28;20416;-55
2023/02/19 02:13:26;;;;;;;15.63;11.93;;;11.60;1.00;;;;;;5111660;28;20447;-55
2023/02/19 02:16:13;;;;;;;15.45;12.13;;;11.70;1.00;;;;;;5115233;28;20075;-55
2023/02/19 02:18:45;;;;;;;13.95;11.80;;;11.60;1.00;;;;;;5115798;28;20382;-55
2023/02/19 02:21:49;;;;;;;15.45;12.15;;;11.50;1.00;;;;;;5115725;28;20092;-55
2023/02/19 02:24:58;;;;;;;12.95;10.88;;;11.50;1.00;;;;;;5115417;28;20027;-54
2023/02/19 02:27:38;;;;;;;13.82;11.45;;;11.50;1.00;;;;;;5113856;27;20028;-55
2023/02/19 02:30:38;;;;;;;14.82;12.02;;;11.30;1.00;;;;;;5114069;28;20016;-55
2023/02/19 02:33:18;;;;;;;16.08;12.18;;;11.50;1.00;;;;;;5058299;28;20120;-54
2023/02/19 02:35:55;;;;;;;17.05;10.85;;;11.50;1.00;;;;;;5116441;28;20072;-54
2023/02/19 02:38:24;;;;;;;15.90;12.13;;;11.50;1.00;;;;;;5116361;28;20016;-55
2023/02/19 02:40:51;;;;;;;16.00;11.38;;;11.50;1.00;;;;;;5115946;28;20028;-55
2023/02/19 02:43:17;;;;;;;15.27;12.18;;;11.50;1.00;;;;;;5109571;28;20024;-54
2023/02/19 02:45:42;;;;;;;13.65;11.05;;;11.50;1.00;;;;;;5114629;28;20114;-54
2023/02/19 02:48:39;;;;;;;14.55;11.63;;;11.50;1.00;;;;;;5114427;28;20028;-55
2023/02/19 02:51:05;;;;;;;15.88;11.93;;;11.50;1.00;;;;;;5104713;28;20047;-55
2023/02/19 02:56:23;;;;;;;14.93;12.20;;;11.60;1.00;;;;;;5115994;28;20046;-55
2023/02/19 02:58:50;;;;;;;17.38;12.93;;;11.40;1.00;;;;;;5115673;28;20020;-54
2023/02/19 03:05:50;;;;;;;14.50;12.43;;;11.50;1.00;;;;;;5115613;28;20065;-55
2023/02/19 03:07:30;;;;;;;16.65;12.27;;;11.60;1.00;;;;;;5115297;28;20087;-53
2023/02/19 03:09:59;;;;;;;15.68;12.50;;;11.60;1.00;;;;;;5114354;28;20027;-55
2023/02/19 03:20:53;;;;;;;17.63;12.95;;;11.60;1.00;;;;;;5115771;28;20515;-54
2023/02/19 03:26:02;;;;;;;15.90;13.18;;;11.50;1.00;;;;;;5101888;28;20016;-55
2023/02/19 03:26:09;;;;;;;17.02;12.73;;;11.60;1.00;;;;;;5113675;28;20063;-53
2023/02/19 03:31:24;;;;;;;16.40;13.45;;;11.60;1.00;;;;;;5115432;28;20081;-55
2023/02/19 03:33:58;;;;;;;17.33;13.63;;;11.50;1.00;;;;;;5114965;28;20096;-55
2023/02/19 03:36:29;;;;;;;17.38;13.23;;;11.50;1.00;;;;;;5114945;28;20058;-55
2023/02/19 03:39:00;;;;;;;17.15;13.60;;;11.50;1.00;;;;;;5114948;28;20031;-55
2023/02/19 03:41:53;;;;;;;19.48;13.27;;;11.50;1.00;;;;;;5115140;28;20015;-54
2023/02/19 03:44:25;;;;;;;17.38;13.70;;;11.50;1.00;;;;;;5114834;28;20032;-54
2023/02/19 03:47:07;;;;;;;16.88;14.15;;;11.50;1.00;;;;;;5114869;28;20028;-54
2023/02/19 03:49:50;;;;;;;17.02;13.52;;;11.50;1.00;;;;;;5114486;28;20067;-55
2023/02/19 03:52:37;;;;;;;18.00;14.55;;;11.50;1.00;;;;;;5114563;28;20465;-55
2023/02/19 03:55:25;;;;;;;15.60;13.52;;;11.40;1.00;;;;;;5114618;28;20067;-54
2023/02/19 03:58:15;;;;;;;17.95;14.25;;;11.40;1.00;;;;;;5114806;27;20421;-53
2023/02/19 04:01:07;;;;;;;23.65;14.02;;;11.40;1.00;;;;;;5114473;28;20432;-55
2023/02/19 04:03:55;;;;;;;21.15;15.00;;;11.40;1.00;;;;;;5114504;28;20023;-56
2023/02/19 04:06:30;;;;;;;22.08;14.25;;;11.40;1.00;;;;;;5103507;28;20023;-55
2023/02/19 04:09:00;;;;;;;18.35;14.50;;;11.40;1.00;;;;;;5114307;28;20020;-54
2023/02/19 04:11:27;;;;;;;20.58;15.20;;;11.30;1.00;;;;;;5114620;28;20022;-54
2023/02/19 04:14:23;;;;;;;18.48;14.20;;;11.40;1.00;;;;;;5114031;28;20503;-55
2023/02/19 04:16:59;;;;;;;18.90;14.77;;;11.40;1.00;;;;;;5108083;28;20505;-52
2023/02/19 04:19:27;;;;;;;20.20;14.73;;;11.30;1.00;;;;;;5112744;28;20024;-54
2023/02/19 04:21:55;;;;;;;16.98;13.57;;;11.40;1.00;;;;;;5112694;28;20358;-54
2023/02/19 04:24:41;;;;;;;18.23;14.77;;;11.40;1.00;;;;;;5109435;28;20064;-54
2023/02/19 04:27:08;;;;;;;19.00;14.40;;;11.40;1.00;;;;;;5105760;28;20413;-52
2023/02/19 04:29:34;;;;;;;18.23;14.68;;;11.30;1.00;;;;;;5113855;27;20481;-53
2023/02/19 04:32:00;;;;;;;17.95;13.90;;;11.40;1.00;;;;;;5113889;27;20027;-52
2023/02/19 04:34:25;;;;;;;18.00;14.75;;;11.30;1.00;;;;;;5113692;28;20031;-55
2023/02/19 04:36:51;;;;;;;17.92;12.88;;;11.30;1.00;;;;;;5113582;28;20024;-55
2023/02/19 04:39:16;;;;;;;18.67;15.38;;;11.40;1.00;;;;;;5113685;28;20028;-55
2023/02/19 04:41:42;;;;;;;20.10;14.43;;;11.30;1.00;;;;;;5113987;28;20133;-56
2023/02/19 04:44:08;;;;;;;19.67;14.67;;;11.30;1.00;;;;;;5109892;28;20031;-55
2023/02/19 04:46:33;;;;;;;20.05;15.57;;;11.40;1.00;;;;;;5092009;28;20012;-52
2023/02/19 04:48:59;;;;;;;23.08;15.73;;;11.40;1.00;;;;;;5105377;28;20051;-53
2023/02/19 04:51:25;;;;;;;17.80;14.23;;;11.30;1.00;;;;;;5113783;28;20102;-54
2023/02/19 04:53:50;;;;;;;21.90;15.40;;;11.30;1.00;;;;;;5099504;28;20397;-53
2023/02/19 04:56:17;;;;;;;18.73;15.55;;;11.30;1.00;;;;;;5112975;28;20043;-52
2023/02/19 04:58:43;;;;;;;20.88;15.68;;;11.30;1.00;;;;;;5112399;28;20459;-53
2023/02/19 05:01:10;;;;;;;18.45;14.82;;;11.30;1.00;;;;;;5113370;28;20095;-55
2023/02/19 05:03:36;;;;;;;19.25;15.38;;;11.30;1.00;;;;;;5113532;28;20027;-54
2023/02/19 05:06:04;;;;;;;19.52;16.15;;;11.30;1.00;;;;;;5113287;28;20024;-56
2023/02/19 05:08:29;;;;;;;19.88;15.02;;;11.30;1.00;;;;;;5113578;28;20438;-54
2023/02/19 05:11:03;;;;;;;27.02;17.05;;;11.30;1.00;;;;;;5113421;28;20114;-53
2023/02/19 05:13:29;;;;;;;21.42;16.83;;;11.30;1.00;;;;;;5100012;28;20031;-56
2023/02/19 05:16:12;;;;;;;20.63;15.95;;;11.20;1.00;;;;;;5113059;28;20043;-51
2023/02/19 05:18:38;;;;;;;19.45;16.00;;;11.20;1.00;;;;;;5100419;28;20104;-54
2023/02/19 05:21:04;;;;;;;21.38;16.55;;;11.20;1.00;;;;;;5113227;28;20055;-52
2023/02/19 05:23:30;;;;;;;20.35;15.98;;;11.20;1.00;;;;;;5112821;28;20043;-52
2023/02/19 05:26:25;;;;;;;21.77;16.33;;;11.20;1.00;;;;;;5112862;28;20028;-55
2023/02/19 05:28:52;;;;;;;23.02;16.38;;;11.20;1.00;;;;;;5099872;28;20027;-53
2023/02/19 05:31:18;;;;;;;22.17;16.63;;;11.10;1.00;;;;;;5112802;28;20112;-53
2023/02/19 05:33:47;;;;;;;21.85;16.38;;;11.10;1.00;;;;;;5112753;28;20412;-52
2023/02/19 05:36:13;;;;;;;20.98;16.15;;;11.10;1.00;;;;;;5112846;28;20349;-53
2023/02/19 05:38:39;;;;;;;21.10;16.67;;;11.10;1.00;;;;;;5112716;28;20020;-52
2023/02/19 05:41:15;;;;;;;24.77;17.30;;;11.10;1.00;;;;;;5112712;28;20422;-51
2023/02/19 05:43:43;;;;;;;22.90;16.42;;;11.10;1.00;;;;;;5111280;28;20016;-53
2023/02/19 05:46:10;;;;;;;21.67;16.85;;;11.10;1.00;;;;;;5112690;28;20026;-55
2023/02/19 05:48:36;;;;;;;23.02;17.92;;;11.10;1.00;;;;;;5111837;28;20027;-55
2023/02/19 05:51:04;;;;;;;24.83;18.00;;;11.10;1.00;;;;;;5112521;28;20401;-52
2023/02/19 05:53:30;;;;;;;23.25;17.20;;;11.00;1.00;;;;;;5112490;28;20027;-54
2023/02/19 05:55:56;;;;;;;22.15;16.30;;;11.10;1.00;;;;;;5112756;28;20020;-54
2023/02/19 05:58:21;;;;;;;23.85;17.23;;;11.00;1.00;;;;;;5112611;28;20374;-55
2023/02/19 06:00:47;;;;;;;27.40;17.65;;;11.00;1.00;;;;;;5112535;28;20031;-55
2023/02/19 06:03:13;;;;;;;21.15;16.65;;;11.00;1.00;;;;;;5112471;28;20028;-54
2023/02/19 06:05:38;;;;;;;23.70;17.98;;;11.10;1.00;;;;;;5112838;28;20051;-54
2023/02/19 06:08:04;;;;;;;21.10;16.98;;;11.10;1.00;;;;;;5112434;28;20058;-52
2023/02/19 06:10:30;;;;;;;30.08;18.55;;;11.10;1.00;;;;;;5112883;28;20032;-54
2023/02/19 06:12:55;;;;;;;23.60;16.65;;;11.10;1.00;;;;;;5106884;28;20081;-55
2023/02/19 06:15:21;;;;;;;20.38;16.05;;;11.10;1.00;;;;;;5112554;28;20039;-54
2023/02/19 06:17:47;;;;;;;21.73;17.08;;;11.10;1.00;;;;;;5112719;28;20070;-55
2023/02/19 06:20:13;;;;;;;25.08;18.38;;;11.10;1.00;;;;;;5112315;28;20389;-55
2023/02/19 06:22:39;;;;;;;23.52;17.70;;;11.10;1.00;;;;;;5112337;28;20027;-55
2023/02/19 06:25:06;;;;;;;24.42;17.95;;;11.20;1.00;;;;;;5112566;28;20024;-52
2023/02/19 06:27:32;;;;;;;24.30;17.88;;;11.10;1.00;;;;;;5112333;28;20023;-54
2023/02/19 06:29:58;;;;;;;20.90;17.80;;;11.10;1.00;;;;;;5112552;28;20408;-56
2023/02/19 06:32:24;;;;;;;24.67;18.10;;;11.10;1.00;;;;;;5112424;28;20058;-54
2023/02/19 06:34:50;;;;;;;23.52;18.38;;;11.10;1.00;;;;;;5112364;28;20469;-53
2023/02/19 06:37:16;;;;;;;23.98;17.17;;;11.10;1.00;;;;;;5112376;28;20027;-55
2023/02/19 06:39:42;;;;;;;23.48;18.10;;;11.10;1.00;;;;;;5112302;28;20042;-56
2023/02/19 06:42:08;;;;;;;27.10;18.42;;;11.20;1.00;;;;;;5112181;28;20023;-55
2023/02/19 06:44:34;;;;;;;22.45;18.13;;;11.20;1.00;;;;;;5112245;28;20093;-55
2023/02/19 06:46:59;;;;;;;24.13;18.58;;;11.20;1.00;;;;;;5112134;28;20457;-56
2023/02/19 06:49:25;;;;;;;21.95;17.13;;;11.10;1.00;;;;;;5111962;28;20047;-53
2023/02/19 06:51:51;;;;;;;26.52;19.70;;;11.20;1.00;;;;;;5110889;28;20043;-55
2023/02/19 06:54:16;;;;;;;23.05;19.35;;;11.20;1.00;;;;;;5096873;28;20118;-56
2023/02/19 06:56:42;;;;;;;24.73;19.42;;;11.20;1.00;;;;;;5112105;28;20449;-53
2023/02/19 06:59:11;;;;;;;25.17;18.98;;;11.20;1.00;;;;;;5111923;28;20035;-52
2023/02/19 07:01:38;;;;;;;23.27;19.02;;;11.10;1.00;;;;;;5115650;28;20019;-55
2023/02/19 07:04:04;;;;;;;26.10;19.30;;;11.10;1.00;;;;;;5115662;28;20023;-53
2023/02/19 07:06:30;;;;;;;24.17;18.70;;;11.20;1.00;;;;;;5115875;28;20046;-54
2023/02/19 07:08:57;;;;;;;26.63;20.05;;;11.10;1.00;;;;;;5114190;28;20026;-51
2023/02/19 07:11:24;;;;;;;23.65;19.33;;;11.20;1.00;;;;;;5101643;28;20055;-54
2023/02/19 07:13:58;;;;;;;27.23;20.00;;;11.20;1.00;;;;;;5111951;28;20494;-53
2023/02/19 07:16:23;;;;;;;24.77;19.55;;;11.20;1.00;;;;;;5113335;28;20016;-52
2023/02/19 07:18:49;;;;;;;27.88;20.10;;;11.30;1.00;;;;;;5115421;28;20032;-55
2023/02/19 07:21:16;;;;;;;30.85;21.23;;;11.40;1.00;;;;;;5113870;28;20484;-54
2023/02/19 07:23:42;;;;;;;25.65;19.77;;;11.30;1.00;;;;;;5115197;28;20020;-56
2023/02/19 07:26:10;;;;;;;29.63;20.88;;;11.40;1.00;;;;;;5115231;28;20031;-54
2023/02/19 07:28:36;;;;;;;28.52;20.85;;;11.50;1.00;;;;;;5115200;27;20019;-54
2023/02/19 07:31:03;;;;;;;24.40;20.02;;;11.50;1.00;;;;;;5113939;28;20031;-55
2023/02/19 07:33:29;;;;;;;27.73;20.65;;;11.50;1.00;;;;;;5101580;28;20027;-54
2023/02/19 07:35:55;;;;;;;27.73;20.67;;;11.60;1.00;;;;;;5115167;28;20036;-56
2023/02/19 07:38:22;;;;;;;24.63;19.90;;;11.40;1.00;;;;;;5114984;28;20049;-54
2023/02/19 07:40:52;;;;;;;28.00;21.27;;;11.50;1.00;;;;;;5114901;28;20077;-55
2023/02/19 07:43:18;;;;;;;28.15;21.38;;;11.40;1.00;;;;;;5115102;28;20081;-55
2023/02/19 07:45:44;;;;;;;31.38;21.00;;;11.50;1.00;;;;;;5114933;28;20442;-54
2023/02/19 07:48:09;;;;;;;31.73;20.45;;;11.40;1.00;;;;;;5114675;28;20023;-57
2023/02/19 07:50:35;;;;;;;29.17;21.02;;;11.50;1.00;;;;;;5114630;28;20039;-56
2023/02/19 07:53:01;;;;;;;28.73;22.13;;;11.60;1.00;;;;;;5114747;28;20444;-55
2023/02/19 07:55:26;;;;;;;30.08;21.35;;;11.60;1.00;;;;;;5110776;28;20131;-53
2023/02/19 07:57:52;;;;;;;28.00;21.15;;;11.60;1.00;;;;;;5114663;28;20031;-56
2023/02/19 08:00:18;;;;;;;28.13;21.33;;;11.70;1.00;;;;;;5114495;28;20039;-54
2023/02/19 08:02:59;;;;;;;28.17;22.33;;;11.60;1.00;;;;;;5114462;28;20064;-55
2023/02/19 08:05:42;;;;;;;28.58;21.98;;;11.60;1.00;;;;;;5114559;28;20416;-55
2023/02/19 08:08:09;;;;;;;28.15;22.65;;;11.60;1.00;;;;;;5101546;28;20099;-55
2023/02/19 08:13:24;;;;;;;31.30;21.90;;;11.60;1.00;;;;;;5102108;28;20089;-54
2023/02/19 08:15:55;;;;;;;29.63;23.73;;;11.70;1.00;;;;;;5114110;27;20059;-56
2023/02/19 08:18:23;;;;;;;30.90;23.58;;;11.80;1.00;;;;;;5110110;28;20027;-56
2023/02/19 08:20:49;;;;;;;30.05;23.30;;;11.90;1.00;;;;;;5107914;28;20027;-57
2023/02/19 08:23:16;;;;;;;30.02;23.02;;;11.90;1.00;;;;;;5114105;28;20024;-57
2023/02/19 08:25:42;;;;;;;32.03;22.52;;;11.90;1.00;;;;;;5114202;28;20127;-57
2023/02/19 08:28:09;;;;;;;31.90;23.20;;;12.00;1.00;;;;;;5113902;28;20105;-53
2023/02/19 08:30:37;;;;;;;29.88;22.98;;;12.10;1.00;;;;;;5113998;28;20062;-55
2023/02/19 08:33:04;;;;;;;33.92;23.20;;;12.00;1.00;;;;;;5113816;28;20064;-56
2023/02/19 08:35:30;;;;;;;31.08;23.98;;;12.00;1.00;;;;;;5113895;28;20469;-54
2023/02/19 08:37:57;;;;;;;32.92;26.17;;;12.10;1.00;;;;;;5114023;28;20146;-57
2023/02/19 08:40:23;;;;;;;29.65;23.08;;;12.20;1.00;;;;;;5113701;27;20358;-52
2023/02/19 08:42:49;;;;;;;30.20;23.83;;;12.30;1.00;;;;;;5113926;28;20020;-55
2023/02/19 08:45:15;;;;;;;31.05;23.27;;;12.40;1.00;;;;;;5113829;28;20384;-53
2023/02/19 08:47:41;;;;;;;31.83;23.42;;;12.40;1.00;;;;;;5113747;28;20413;-56
2023/02/19 08:50:07;;;;;;;32.33;23.75;;;12.50;1.00;;;;;;5113263;28;20042;-57
2023/02/19 08:52:34;;;;;;;29.10;23.05;;;12.50;1.00;;;;;;5113466;27;20087;-52
2023/02/19 08:55:00;;;;;;;31.35;23.98;;;12.60;1.00;;;;;;5113540;28;20063;-57
2023/02/19 08:57:28;;;;;;;30.75;22.02;;;12.60;1.00;;;;;;5114055;28;20020;-55
2023/02/19 08:59:56;;;;;;;29.27;24.05;;;12.60;1.00;;;;;;5108512;28;20081;-55
2023/02/19 09:02:23;;;;;;;32.70;23.98;;;12.60;1.00;;;;;;5109017;28;20019;-56
2023/02/19 09:04:49;;;;;;;32.00;23.92;;;12.70;1.00;;;;;;5111255;28;20030;-57
2023/02/19 09:07:15;;;;;;;32.28;24.13;;;12.70;1.00;;;;;;5113043;28;20019;-56
2023/02/19 09:09:41;;;;;;;31.23;23.27;;;12.60;1.00;;;;;;5110875;28;20546;-55
2023/02/19 09:12:09;;;;;;;33.15;24.38;;;12.80;1.00;;;;;;5102600;28;20020;-55
2023/02/19 09:14:36;;;;;;;30.92;22.90;;;12.90;1.00;;;;;;5111392;28;20035;-55
2023/02/19 09:17:04;;;;;;;35.33;24.08;;;13.00;1.00;;;;;;5113135;28;20384;-53
2023/02/19 09:19:30;;;;;;;28.30;22.92;;;13.00;1.00;;;;;;5112954;28;20027;-54
2023/02/19 09:21:55;;;;;;;33.08;25.73;;;12.90;1.00;;;;;;5113055;28;20438;-55
2023/02/19 09:24:22;;;;;;;32.85;25.00;;;12.90;1.00;;;;;;5113107;28;20024;-56
2023/02/19 09:26:49;;;;;;;31.80;23.67;;;12.90;1.00;;;;;;5113000;28;20055;-55
2023/02/19 09:29:15;;;;;;;26.50;21.45;;;13.00;1.00;;;;;;5112845;28;20134;-54
2023/02/19 09:31:40;;;;;;;33.95;23.65;;;13.00;1.00;;;;;;5101070;28;20118;-55
2023/02/19 09:34:06;;;;;;;30.02;22.75;;;13.00;1.00;;;;;;5111398;28;20034;-55
2023/02/19 09:36:32;;;;;;;31.77;24.30;;;12.90;1.00;;;;;;5112746;28;20465;-55
2023/02/19 09:39:01;;;;;;;30.95;24.27;;;12.90;1.00;;;;;;5112999;28;20114;-55
2023/02/19 09:41:48;;;;;;;32.95;23.73;;;13.00;1.00;;;;;;5112666;28;20541;-56
2023/02/19 09:44:23;;;;;;;28.63;21.88;;;13.10;1.00;;;;;;5112884;28;20466;-57
2023/02/19 09:46:51;;;;;;;27.98;22.33;;;13.10;1.00;;;;;;5111239;28;20023;-56
2023/02/19 09:49:23;;;;;;;30.05;21.33;;;13.20;1.00;;;;;;5112689;28;20053;-57
2023/02/19 09:52:11;;;;;;;26.35;20.73;;;12.90;1.00;;;;;;5112720;28;20041;-56
2023/02/19 09:54:38;;;;;;;24.77;18.48;;;12.90;1.00;;;;;;5099562;28;20044;-56
2023/02/19 09:57:04;;;;;;;22.35;18.23;;;13.20;1.00;;;;;;5112611;28;20449;-55
2023/02/19 09:59:40;;;;;;;25.63;18.95;;;13.20;1.00;;;;;;5113063;28;20024;-56
2023/02/19 10:02:24;;;;;;;25.80;19.40;;;13.10;1.00;;;;;;5112815;28;20377;-56
2023/02/19 10:04:51;;;;;;;22.98;18.63;;;13.20;1.00;;;;;;5100523;28;20540;-56
2023/02/19 10:07:39;;;;;;;22.25;17.98;;;13.20;1.00;;;;;;5112610;28;20051;-56
2023/02/19 10:10:13;;;;;;;22.98;18.23;;;13.30;1.00;;;;;;5112784;28;20373;-56
2023/02/19 10:12:49;;;;;;;24.77;19.10;;;13.20;1.00;;;;;;5112417;28;20092;-56
2023/02/19 10:15:56;;;;;;;22.13;17.88;;;13.30;1.00;;;;;;5112766;28;20063;-55
2023/02/19 10:18:27;;;;;;;24.77;18.27;;;13.50;1.00;;;;;;5112340;28;20040;-56
2023/02/19 10:20:53;;;;;;;24.67;17.83;;;13.60;1.00;;;;;;5107009;28;20031;-56
2023/02/19 10:23:19;;;;;;;23.17;17.23;;;13.70;1.00;;;;;;5112266;28;20031;-56
2023/02/19 10:25:58;;;;;;;23.38;17.10;;;13.70;1.00;;;;;;5121555;28;20441;-55
2023/02/19 10:28:33;;;;;;;21.85;16.55;;;13.50;1.00;;;;;;5120609;28;20031;-56
2023/02/19 10:31:01;;;;;;;21.52;16.65;;;13.70;1.00;;;;;;5099962;28;20031;-55
2023/02/19 10:33:27;;;;;;;19.20;15.38;;;13.90;1.00;;;;;;5105783;28;20051;-52
2023/02/19 10:36:14;;;;;;;20.77;15.18;;;13.90;1.00;;;;;;5112227;28;20111;-55
2023/02/19 10:38:45;;;;;;;20.23;13.82;;;13.90;1.00;;;;;;5119922;27;20085;-54
2023/02/19 10:41:14;;;;;;;17.48;14.10;;;13.90;1.00;;;;;;5112802;27;20114;-55
2023/02/19 10:44:03;;;;;;;17.70;13.10;;;14.00;1.00;;;;;;5101689;28;20050;-54
2023/02/19 10:46:34;;;;;;;13.07;10.65;;;14.10;1.00;;;;;;5110304;27;20040;-57
2023/02/19 10:49:03;;;;;;;12.75;10.45;;;14.10;1.00;;;;;;5119897;27;20035;-56
2023/02/19 10:51:34;;;;;;;13.50;11.18;;;14.10;1.00;;;;;;5114116;27;20035;-55
2023/02/19 10:54:13;;;;;;;13.25;11.18;;;14.00;1.00;;;;;;5124066;27;20091;-55
2023/02/19 10:56:40;;;;;;;13.80;11.45;;;14.10;1.00;;;;;;5111494;27;20089;-55
2023/02/19 10:59:17;;;;;;;14.02;11.50;;;14.30;1.00;;;;;;5125246;27;20310;-55
2023/02/19 11:02:14;;;;;;;13.75;10.82;;;14.40;1.00;;;;;;5114884;27;20031;-58
2023/02/19 11:04:40;;;;;;;14.05;10.48;;;14.40;1.00;;;;;;5117043;27;20062;-58
2023/02/19 11:07:17;;;;;;;12.75;10.73;;;14.40;1.00;;;;;;5111308;27;20056;-48
2023/02/19 11:09:45;;;;;;;12.45;10.40;;;14.30;1.00;;;;;;5115124;28;20032;-48
2023/02/19 11:12:24;;;;;;;12.95;10.98;;;14.40;1.00;;;;;;5125637;27;20031;-49
2023/02/19 11:14:50;;;;;;;14.30;10.63;;;14.50;1.00;;;;;;5095583;28;20138;-51
2023/02/19 11:17:25;;;;;;;11.63;9.98;;;14.50;1.00;;;;;;5120310;27;20039;-50
2023/02/19 11:20:04;;;;;;;11.57;9.82;;;14.60;1.00;;;;;;5115524;27;20031;-49
2023/02/19 11:22:32;;;;;;;13.43;9.55;;;14.70;1.00;;;;;;5114350;28;20421;-48
2023/02/19 11:25:13;;;;;;;14.82;11.18;;;14.80;1.00;;;;;;5118782;27;20031;-50
2023/02/19 11:27:57;;;;;;;11.57;9.70;;;14.90;1.00;;;;;;5116581;27;20051;-50
2023/02/19 11:30:29;;;;;;;12.02;9.07;;;14.90;1.00;;;;;;5106859;28;20031;-51
2023/02/19 11:32:55;;;;;;;15.25;9.88;;;14.90;1.00;;;;;;5113695;28;20031;-49
2023/02/19 11:35:24;;;;;;;12.48;10.05;;;14.80;1.00;;;;;;5111859;28;20048;-51
2023/02/19 11:38:00;;;;;;;11.55;10.23;;;15.00;1.00;;;;;;5104010;28;20015;-50
2023/02/19 11:40:53;;;;;;;12.25;10.45;;;14.90;1.00;;;;;;5114471;28;20023;-54
2023/02/19 11:43:26;;;;;;;15.35;10.10;;;14.80;1.00;;;;;;5113703;28;20435;-58
2023/02/19 11:46:17;;;;;;;10.55;9.40;;;14.90;1.00;;;;;;5112887;28;20389;-57
2023/02/19 11:48:53;;;;;;;12.45;10.48;;;15.00;1.00;;;;;;5096436;28;20021;-55
2023/02/19 11:51:27;;;;;;;13.82;10.55;;;15.10;1.00;;;;;;5113721;28;20028;-53
2023/02/19 11:57:20;;;;;;;13.45;10.10;;;15.30;1.00;;;;;;5098062;28;20397;-53
2023/02/19 12:00:00;;;;;;;12.75;10.18;;;15.20;1.00;;;;;;5114227;28;20038;-51
2023/02/19 12:02:50;;;;;;;12.98;9.93;;;15.20;1.00;;;;;;5114332;28;20088;-51
2023/02/19 12:05:30;;;;;;;12.50;10.38;;;15.20;1.00;;;;;;5113863;27;20020;-53
2023/02/19 12:08:05;;;;;;;10.70;9.10;;;15.20;1.00;;;;;;5104870;28;20119;-50
2023/02/19 12:10:42;;;;;;;;;;;15.20;1.00;;;;;;5109280;28;20037;-50
2023/02/19 12:13:51;;;;;;;12.65;10.32;;;15.30;1.00;;;;;;5114082;28;19904;-51
2023/02/19 12:16:32;;;;;;;11.55;9.65;;;15.30;1.00;;;;;;5095500;28;20039;-51
2023/02/19 12:19:26;;;;;;;10.77;9.57;;;15.30;1.00;;;;;;5113897;28;20031;-50
2023/02/19 12:22:13;;;;;;;11.40;9.45;;;15.40;1.00;;;;;;5114167;28;20027;-54
2023/02/19 12:28:44;;;;;;;11.60;9.10;;;15.50;1.00;;;;;;5096297;28;20115;-51
2023/02/19 12:31:30;;;;;;;12.73;9.40;;;15.50;1.00;;;;;;5100142;28;20020;-49
2023/02/19 12:34:13;;;;;;;12.20;9.27;;;15.70;1.00;;;;;;5112062;28;20033;-53
2023/02/19 12:36:53;;;;;;;11.43;9.48;;;15.70;1.00;;;;;;5113730;28;20024;-55
2023/02/19 12:39:37;;;;;;;13.48;9.77;;;15.60;1.00;;;;;;5113590;28;20049;-54
2023/02/19 12:42:20;;;;;;;13.85;9.50;;;15.80;1.00;;;;;;5113347;28;20556;-53
2023/02/19 12:44:53;;;;;;;11.98;9.25;;;15.70;1.00;;;;;;5113318;28;20012;-53
2023/02/19 12:47:23;;;;;;;10.60;9.43;;;15.80;1.00;;;;;;5113373;28;20051;-52
2023/02/19 12:50:05;;;;;;;11.38;10.07;;;15.80;1.00;;;;;;5111614;28;20055;-55
2023/02/19 12:52:40;;;;;;;10.73;9.60;;;15.90;1.00;;;;;;5111886;28;20095;-52
2023/02/19 12:55:18;;;;;;;10.35;9.23;;;16.00;1.00;;;;;;5113312;28;20088;-54
2023/02/19 12:57:44;;;;;;;11.70;10.25;;;16.00;1.00;;;;;;5106683;28;20035;-52
2023/02/19 13:00:19;;;;;;;10.82;9.63;;;16.10;1.00;;;;;;5104885;28;20022;-53
2023/02/19 13:02:58;;;;;;;15.80;11.40;;;16.10;1.00;;;;;;5098528;28;20493;-54
2023/02/19 13:05:30;;;;;;;11.57;10.35;;;16.00;1.00;;;;;;5113134;28;20102;-50
2023/02/19 13:08:14;;;;;;;12.93;10.43;;;16.00;1.00;;;;;;5111520;28;20550;-53
2023/02/19 13:11:02;;;;;;;12.07;9.88;;;15.90;1.00;;;;;;5098782;28;20064;-50
2023/02/19 13:13:41;;;;;;;11.95;9.63;;;15.80;1.00;;;;;;5099925;28;20020;-53
2023/02/19 13:16:17;;;;;;;12.02;10.55;;;15.70;1.00;;;;;;5112886;28;20040;-55
2023/02/19 13:18:53;;;;;;;14.30;10.70;;;15.90;1.00;;;;;;5112817;28;20016;-55
2023/02/19 13:24:11;;;;;;;14.35;10.65;;;15.90;1.00;;;;;;5112438;28;20050;-53
2023/02/19 13:27:16;;;;;;;11.73;10.50;;;15.90;1.00;;;;;;5112859;28;20085;-52
2023/02/19 13:29:50;;;;;;;11.82;10.50;;;15.90;1.00;;;;;;5106612;28;20027;-53
2023/02/19 13:32:28;;;;;;;;;;;15.90;1.00;;;;;;5099757;28;20447;-55
2023/02/19 13:34:57;;;;;;;12.43;10.20;;;15.90;1.00;;;;;;5112415;28;19911;-58